createdAt,value
2023-02-17T00:01:39.972Z,100825.25
2023-02-17T00:04:07.584Z,100817.31
2023-02-17T00:06:38.912Z,100821.47
2023-02-17T00:09:07.515Z,100825.06
2023-02-17T00:11:43.904Z,100813.72
2023-02-17T00:14:13.598Z,100813.72
2023-02-17T00:16:42.591Z,100812.09
2023-02-17T00:19:25.250Z,100811.09
2023-02-17T00:21:56.594Z,100805.47
2023-02-17T00:24:24.629Z,100804.19
2023-02-17T00:26:52.457Z,100801.25
2023-02-17T00:29:20.180Z,100799.34
2023-02-17T00:31:48.321Z,100791.84
2023-02-17T00:34:18.421Z,100791.84
2023-02-17T00:36:46.360Z,100802.91
2023-02-17T00:39:17.313Z,100793.75
2023-02-17T00:41:45.739Z,100792.41
2023-02-17T00:44:18.936Z,100797.84
2023-02-17T00:46:47.775Z,100803.34
2023-02-17T00:49:17.912Z,100802.69
2023-02-17T00:51:48.573Z,100811.72
2023-02-17T00:54:18.754Z,100806.22
2023-02-17T00:56:46.952Z,100802.69
2023-02-17T00:59:14.728Z,100804.84
2023-02-17T01:01:42.474Z,100804.06
2023-02-17T01:04:10.194Z,100812.09
2023-02-17T01:06:39.688Z,100812.59
2023-02-17T01:09:09.849Z,100808.59
2023-02-17T01:11:38.723Z,100815.44
2023-02-17T01:14:10.252Z,100817.97
2023-02-17T01:16:39.805Z,100824.78
2023-02-17T01:19:10.297Z,100823.94
2023-02-17T01:21:37.968Z,100827.09
2023-02-17T01:24:07.721Z,100812.75
2023-02-17T01:26:37.238Z,100811.59
2023-02-17T01:29:07.099Z,100802.97
2023-02-17T01:31:34.940Z,100802.25
2023-02-17T01:34:04.778Z,100796.91
2023-02-17T01:36:33.410Z,100795.44
2023-02-17T01:39:01.483Z,100797.34
2023-02-17T01:41:30.036Z,100790.63
2023-02-17T01:44:13.037Z,100788.00
2023-02-17T01:46:41.919Z,100779.97
2023-02-17T01:49:26.142Z,100772.31
2023-02-17T01:51:58.130Z,100777.09
2023-02-17T01:54:29.654Z,100765.16
2023-02-17T01:57:00.777Z,100760.28
2023-02-17T01:59:33.213Z,100745.78
2023-02-17T02:02:05.793Z,100752.31
2023-02-17T02:04:36.891Z,100752.50
2023-02-17T02:07:07.190Z,100738.47
2023-02-17T02:09:39.780Z,100732.31
2023-02-17T02:12:18.930Z,100736.41
2023-02-17T02:14:48.647Z,100738.44
2023-02-17T02:17:26.969Z,100724.88
2023-02-17T02:20:17.879Z,100714.53
2023-02-17T02:23:14.017Z,100703.31
2023-02-17T02:26:20.747Z,100706.81
2023-02-17T02:29:09.675Z,100708.38
2023-02-17T02:31:49.077Z,100699.00
2023-02-17T02:34:25.683Z,100696.50
2023-02-17T02:37:04.413Z,100688.84
2023-02-17T02:39:39.857Z,100695.69
2023-02-17T02:42:13.397Z,100692.53
2023-02-17T02:44:41.242Z,100689.53
2023-02-17T02:47:44.744Z,100684.69
2023-02-17T02:50:21.252Z,100683.03
2023-02-17T02:53:15.425Z,100677.84
2023-02-17T02:55:53.635Z,100678.03
2023-02-17T02:58:25.412Z,100674.22
2023-02-17T03:01:00.049Z,100673.88
2023-02-17T03:03:36.352Z,100663.19
2023-02-17T03:06:16.797Z,100664.22
2023-02-17T03:08:48.714Z,100660.66
2023-02-17T03:11:32.170Z,100664.03
2023-02-17T03:14:04.370Z,100660.50
2023-02-17T03:16:32.742Z,100661.69
2023-02-17T03:19:00.562Z,100649.66
2023-02-17T03:21:36.382Z,100651.66
2023-02-17T03:24:04.137Z,100652.66
2023-02-17T03:26:32.173Z,100645.28
2023-02-17T03:28:59.850Z,100654.44
2023-02-17T03:31:30.715Z,100660.44
2023-02-17T03:33:58.861Z,100664.94
2023-02-17T03:36:26.469Z,100664.41
2023-02-17T03:38:58.399Z,100660.69
2023-02-17T03:41:26.392Z,100659.31
2023-02-17T03:43:53.935Z,100661.50
2023-02-17T03:46:21.669Z,100655.94
2023-02-17T03:48:49.384Z,100653.06
2023-02-17T03:51:20.277Z,100659.88
2023-02-17T03:53:48.796Z,100656.59
2023-02-17T03:56:19.562Z,100654.88
2023-02-17T03:58:47.113Z,100643.34
2023-02-17T04:01:15.444Z,100649.06
2023-02-17T04:03:43.409Z,100654.50
2023-02-17T04:06:11.724Z,100644.06
2023-02-17T04:08:43.400Z,100652.75
2023-02-17T04:11:14.316Z,100643.59
2023-02-17T04:13:43.625Z,100646.75
2023-02-17T04:16:12.531Z,100652.75
2023-02-17T04:18:40.805Z,100656.66
2023-02-17T04:21:08.782Z,100657.16
2023-02-17T04:23:37.282Z,100652.66
2023-02-17T04:26:16.524Z,100649.25
2023-02-17T04:28:45.443Z,100650.81
2023-02-17T04:31:13.274Z,100650.44
2023-02-17T04:33:43.894Z,100656.81
2023-02-17T04:36:14.101Z,100653.16
2023-02-17T04:38:41.962Z,100659.22
2023-02-17T04:41:09.574Z,100649.25
2023-02-17T04:43:37.188Z,100657.00
2023-02-17T04:46:09.688Z,100664.53
2023-02-17T04:48:39.274Z,100661.00
2023-02-17T04:51:07.457Z,100663.00
2023-02-17T04:53:35.318Z,100663.19
2023-02-17T04:56:03.022Z,100660.34
2023-02-17T04:58:30.554Z,100658.00
2023-02-17T05:01:00.507Z,100653.81
2023-02-17T05:03:29.705Z,100650.41
2023-02-17T05:06:01.079Z,100645.56
2023-02-17T05:08:28.947Z,100648.66
2023-02-17T05:10:56.841Z,100647.75
2023-02-17T05:13:24.389Z,100651.75
2023-02-17T05:15:51.988Z,100652.06
2023-02-17T05:18:19.740Z,100648.72
2023-02-17T05:20:48.615Z,100645.16
2023-02-17T05:23:16.309Z,100649.81
2023-02-17T05:25:44.866Z,100635.88
2023-02-17T05:28:18.006Z,100646.28
2023-02-17T05:30:45.845Z,100651.22
2023-02-17T05:33:13.813Z,100647.53
2023-02-17T05:35:44.068Z,100648.84
2023-02-17T05:38:14.158Z,100654.41
2023-02-17T05:40:41.957Z,100652.34
2023-02-17T05:43:09.755Z,100654.91
2023-02-17T05:45:37.438Z,100664.81
2023-02-17T05:48:05.390Z,100669.16
2023-02-17T05:50:33.191Z,100677.19
2023-02-17T05:53:00.811Z,100676.06
2023-02-17T05:55:29.786Z,100679.25
2023-02-17T05:57:57.291Z,100676.88
2023-02-17T06:00:25.177Z,100680.03
2023-02-17T06:02:52.860Z,100682.38
2023-02-17T06:05:22.256Z,100671.00
2023-02-17T06:07:49.912Z,100680.72
2023-02-17T06:10:17.555Z,100679.63
2023-02-17T06:12:46.408Z,100670.81
2023-02-17T06:15:14.133Z,100667.31
2023-02-17T06:17:41.746Z,100668.97
2023-02-17T06:20:11.024Z,100659.66
2023-02-17T06:22:38.664Z,100665.19
2023-02-17T06:25:06.908Z,100658.84
2023-02-17T06:27:34.543Z,100653.50
2023-02-17T06:30:03.608Z,100644.44
2023-02-17T06:32:31.372Z,100649.16
2023-02-17T06:34:58.865Z,100649.81
2023-02-17T06:37:26.585Z,100660.66
2023-02-17T06:39:54.138Z,100664.00
2023-02-17T06:42:21.676Z,100660.28
2023-02-17T06:44:49.335Z,100673.97
2023-02-17T06:47:20.310Z,100667.69
2023-02-17T06:49:48.960Z,100665.00
2023-02-17T06:52:16.489Z,100670.00
2023-02-17T06:54:44.018Z,100684.22
2023-02-17T06:57:11.627Z,100687.56
2023-02-17T06:59:39.191Z,100688.97
2023-02-17T07:02:07.626Z,100686.72
2023-02-17T07:04:36.528Z,100687.97
2023-02-17T07:07:04.094Z,100682.97
2023-02-17T07:09:32.928Z,100691.66
2023-02-17T07:12:00.673Z,100683.81
2023-02-17T07:14:29.721Z,100688.56
2023-02-17T07:16:57.262Z,100691.66
2023-02-17T07:19:24.881Z,100684.81
2023-02-17T07:21:53.995Z,100680.47
2023-02-17T07:24:21.535Z,100685.31
2023-02-17T07:26:49.440Z,100675.09
2023-02-17T07:29:18.651Z,100675.47
2023-02-17T07:31:51.031Z,100672.81
2023-02-17T07:34:19.617Z,100662.47
2023-02-17T07:36:47.238Z,100672.94
2023-02-17T07:39:16.229Z,100668.84
2023-02-17T07:41:43.831Z,100673.66
2023-02-17T07:44:17.245Z,100676.34
2023-02-17T07:46:45.295Z,100682.91
2023-02-17T07:49:16.769Z,100667.47
2023-02-17T07:51:45.332Z,100679.41
2023-02-17T07:54:14.067Z,100658.31
2023-02-17T07:56:43.040Z,100669.91
2023-02-17T07:59:11.006Z,100674.53
2023-02-17T08:01:38.837Z,100665.28
2023-02-17T08:04:06.481Z,100672.75
2023-02-17T08:06:34.125Z,100670.09
2023-02-17T08:09:19.382Z,100670.53
2023-02-17T08:12:06.150Z,100670.66
2023-02-17T08:14:33.741Z,100669.75
2023-02-17T08:17:01.689Z,100654.38
2023-02-17T08:19:42.879Z,100650.31
2023-02-17T08:22:14.426Z,100650.75
2023-02-17T08:24:42.038Z,100648.47
2023-02-17T08:27:11.085Z,100655.94
2023-02-17T08:29:38.802Z,100660.97
2023-02-17T08:32:09.550Z,100656.31
2023-02-17T08:34:37.235Z,100662.97
2023-02-17T08:37:07.288Z,100643.41
2023-02-17T08:39:35.841Z,100644.88
2023-02-17T08:42:04.847Z,100652.97
2023-02-17T08:44:43.427Z,100651.25
2023-02-17T08:47:11.698Z,100645.25
2023-02-17T08:49:39.732Z,100657.47
2023-02-17T08:52:07.298Z,100661.44
2023-02-17T08:54:35.213Z,100666.56
2023-02-17T08:57:02.742Z,100660.78
2023-02-17T08:59:30.470Z,100659.31
2023-02-17T09:02:06.403Z,100663.41
2023-02-17T09:04:34.218Z,100660.38
2023-02-17T09:07:02.945Z,100665.94
2023-02-17T09:09:31.593Z,100668.28
2023-02-17T09:11:59.984Z,100668.28
2023-02-17T09:14:28.506Z,100654.31
2023-02-17T09:16:59.557Z,100664.81
2023-02-17T09:19:28.649Z,100672.25
2023-02-17T09:21:57.372Z,100676.50
2023-02-17T09:24:24.993Z,100669.94
2023-02-17T09:26:52.648Z,100665.09
2023-02-17T09:29:20.308Z,100673.16
2023-02-17T09:31:47.984Z,100684.53
2023-02-17T09:34:15.824Z,100677.31
2023-02-17T09:36:45.311Z,100676.59
2023-02-17T09:39:14.788Z,100679.84
2023-02-17T09:41:47.276Z,100667.22
2023-02-17T09:44:22.491Z,100651.09
2023-02-17T09:47:02.286Z,100659.63
2023-02-17T09:49:37.131Z,100653.22
2023-02-17T09:52:19.672Z,100668.22
2023-02-17T09:54:58.169Z,100663.41
2023-02-17T09:57:29.292Z,100666.91
2023-02-17T10:00:03.893Z,100676.63
2023-02-17T10:02:40.145Z,100679.63
2023-02-17T10:05:12.098Z,100681.34
2023-02-17T10:07:47.131Z,100663.88
2023-02-17T10:10:19.268Z,100665.78
2023-02-17T10:12:52.485Z,100676.81
2023-02-17T10:15:24.235Z,100674.69
2023-02-17T10:17:57.928Z,100674.69
2023-02-17T10:20:32.008Z,100675.41
2023-02-17T10:23:08.113Z,100677.59
2023-02-17T10:25:51.838Z,100683.56
2023-02-17T10:28:27.656Z,100661.56
2023-02-17T10:31:04.243Z,100670.00
2023-02-17T10:33:39.282Z,100648.47
2023-02-17T10:36:19.718Z,100663.19
2023-02-17T10:38:52.614Z,100670.88
2023-02-17T10:41:23.757Z,100661.72
2023-02-17T10:43:52.643Z,100674.31
2023-02-17T10:46:31.656Z,100662.34
2023-02-17T10:49:02.470Z,100661.25
2023-02-17T10:51:31.673Z,100667.53
2023-02-17T10:54:06.735Z,100659.06
2023-02-17T10:56:40.584Z,100670.00
2023-02-17T10:59:15.728Z,100667.69
2023-02-17T11:01:44.284Z,100663.03
2023-02-17T11:04:14.083Z,100663.66
2023-02-17T11:06:45.322Z,100670.69
2023-02-17T11:09:28.509Z,100677.47
2023-02-17T11:12:01.217Z,100673.84
2023-02-17T11:14:30.854Z,100685.31
2023-02-17T11:17:00.604Z,100670.38
2023-02-17T11:19:30.832Z,100666.16
2023-02-17T11:22:00.433Z,100670.00
2023-02-17T11:24:32.192Z,100669.06
2023-02-17T11:27:01.313Z,100674.19
2023-02-17T11:29:29.606Z,100660.63
2023-02-17T11:32:00.026Z,100669.97
2023-02-17T11:34:29.772Z,100666.44
2023-02-17T11:37:02.798Z,100657.72
2023-02-17T11:39:32.144Z,100663.13
2023-02-17T11:42:00.742Z,100652.63
2023-02-17T11:44:29.781Z,100658.06
2023-02-17T11:47:15.720Z,100651.59
2023-02-17T11:50:12.729Z,100650.38
2023-02-17T11:52:54.025Z,100649.56
2023-02-17T11:55:30.565Z,100637.56
2023-02-17T11:58:16.692Z,100639.19
2023-02-17T12:00:52.410Z,100631.94
2023-02-17T12:04:14.679Z,100624.69
2023-02-17T12:06:59.345Z,100623.38
2023-02-17T12:09:35.720Z,100632.44
2023-02-17T12:12:17.792Z,100624.69
2023-02-17T12:14:59.760Z,100618.56
2023-02-17T12:17:39.550Z,100611.91
2023-02-17T12:20:29.175Z,100607.34
2023-02-17T12:23:09.083Z,100600.53
2023-02-17T12:26:12.973Z,100617.09
2023-02-17T12:29:03.793Z,100608.19
2023-02-17T12:31:53.539Z,100604.69
2023-02-17T12:34:30.337Z,100606.06
2023-02-17T12:36:59.862Z,100587.38
2023-02-17T12:39:33.729Z,100587.78
2023-02-17T12:42:08.169Z,100579.31
2023-02-17T12:44:41.249Z,100575.13
2023-02-17T12:47:15.877Z,100561.06
2023-02-17T12:49:48.439Z,100568.53
2023-02-17T12:52:25.747Z,100560.22
2023-02-17T12:54:57.043Z,100570.59
2023-02-17T12:57:28.994Z,100566.22
2023-02-17T12:59:59.751Z,100571.81
2023-02-17T13:02:27.660Z,100563.28
2023-02-17T13:05:02.202Z,100565.38
2023-02-17T13:07:53.075Z,100566.88
2023-02-17T13:10:33.552Z,100565.22
2023-02-17T13:13:04.158Z,100576.63
2023-02-17T13:15:36.806Z,100575.19
2023-02-17T13:18:06.970Z,100575.78
2023-02-17T13:20:54.431Z,100570.59
2023-02-17T13:23:39.205Z,100574.97
2023-02-17T13:26:28.576Z,100572.84
2023-02-17T13:29:13.386Z,100559.13
2023-02-17T13:31:54.562Z,100574.28
2023-02-17T13:34:31.408Z,100572.03
2023-02-17T13:37:03.625Z,100563.72
2023-02-17T13:39:38.369Z,100559.81
2023-02-17T13:42:37.344Z,100566.28
2023-02-17T13:45:15.369Z,100550.25
2023-02-17T13:47:46.912Z,100545.69
2023-02-17T13:50:29.443Z,100560.84
2023-02-17T13:52:57.461Z,100551.09
2023-02-17T13:55:25.744Z,100548.78
2023-02-17T13:57:54.451Z,100555.44
2023-02-17T14:00:25.150Z,100558.13
2023-02-17T14:02:58.957Z,100554.00
2023-02-17T14:05:36.997Z,100546.28
2023-02-17T14:08:08.952Z,100552.53
2023-02-17T14:10:42.244Z,100545.88
2023-02-17T14:13:16.248Z,100549.63
2023-02-17T14:15:57.803Z,100538.44
2023-02-17T14:18:33.928Z,100536.16
2023-02-17T14:21:09.206Z,100537.59
2023-02-17T14:23:44.741Z,100539.25
2023-02-17T14:26:16.592Z,100528.66
2023-02-17T14:28:54.859Z,100523.94
2023-02-17T14:31:23.880Z,100512.69
2023-02-17T14:34:01.486Z,100514.97
2023-02-17T14:36:33.654Z,100516.84
2023-02-17T14:39:02.520Z,100516.41
2023-02-17T14:41:31.673Z,100528.44
2023-02-17T14:43:59.879Z,100521.41
2023-02-17T14:46:29.709Z,100512.47
2023-02-17T14:48:58.758Z,100520.13
2023-02-17T14:51:32.664Z,100536.13
2023-02-17T14:54:03.207Z,100525.13
2023-02-17T14:56:34.903Z,100534.91
2023-02-17T14:59:02.589Z,100526.38
2023-02-17T15:01:30.188Z,100527.00
2023-02-17T15:03:59.135Z,100523.66
2023-02-17T15:06:32.578Z,100527.63
2023-02-17T15:09:02.256Z,100531.34
2023-02-17T15:11:36.794Z,100531.78
2023-02-17T15:14:08.375Z,100529.72
2023-02-17T15:16:36.594Z,100528.88
2023-02-17T15:19:05.555Z,100543.41
2023-02-17T15:21:35.136Z,100545.28
2023-02-17T15:24:04.408Z,100545.91
2023-02-17T15:26:36.301Z,100546.94
2023-02-17T15:29:04.384Z,100551.09
2023-02-17T15:31:35.250Z,100544.47
2023-02-17T15:34:09.617Z,100542.75
2023-02-17T15:36:37.279Z,100543.81
2023-02-17T15:39:04.864Z,100539.47
2023-02-17T15:41:35.242Z,100539.25
2023-02-17T15:44:08.277Z,100535.09
2023-02-17T15:46:36.840Z,100532.81
2023-02-17T15:49:06.168Z,100521.41
2023-02-17T15:51:33.753Z,100521.19
2023-02-17T15:54:01.541Z,100518.91
2023-02-17T15:56:33.453Z,100522.84
2023-02-17T15:59:16.171Z,100518.69
2023-02-17T16:01:46.805Z,100530.50
2023-02-17T16:04:19.850Z,100539.41
2023-02-17T16:09:33.353Z,100551.03
2023-02-17T16:12:01.616Z,100546.44
2023-02-17T16:14:34.768Z,100541.69
2023-02-17T16:17:03.086Z,100531.06
2023-02-17T16:19:34.899Z,100530.06
2023-02-17T16:22:02.551Z,100532.31
2023-02-17T16:24:30.307Z,100537.50
2023-02-17T16:26:58.008Z,100536.69
2023-02-17T16:29:25.534Z,100535.03
2023-02-17T16:32:28.486Z,100551.19
2023-02-17T16:38:23.405Z,100549.91
2023-02-17T16:40:55.174Z,100526.03
2023-02-17T16:43:25.344Z,100548.03
2023-02-17T16:45:57.546Z,100548.22
2023-02-17T16:48:27.433Z,100556.91
2023-02-17T16:50:58.420Z,100569.97
2023-02-17T16:53:29.755Z,100559.00
2023-02-17T16:55:57.843Z,100545.31
2023-02-17T16:58:31.342Z,100554.19
2023-02-17T17:01:00.312Z,100565.16
2023-02-17T17:03:30.194Z,100574.28
2023-02-17T17:06:00.111Z,100575.09
2023-02-17T17:08:29.686Z,100586.00
2023-02-17T17:10:58.761Z,100579.38
2023-02-17T17:13:28.803Z,100585.38
2023-02-17T17:15:57.059Z,100593.25
2023-02-17T17:18:24.811Z,100585.94
2023-02-17T17:20:52.821Z,100596.53
2023-02-17T17:23:31.803Z,100596.53
2023-02-17T17:25:59.652Z,100596.72
2023-02-17T17:28:35.965Z,100592.00
2023-02-17T17:31:06.220Z,100591.59
2023-02-17T17:33:47.965Z,100587.47
2023-02-17T17:36:29.745Z,100591.53
2023-02-17T17:39:02.509Z,100606.91
2023-02-17T17:41:30.820Z,100616.25
2023-02-17T17:44:00.018Z,100611.47
2023-02-17T17:46:33.040Z,100610.03
2023-02-17T17:49:03.312Z,100616.66
2023-02-17T17:51:32.545Z,100619.38
2023-02-17T17:54:08.771Z,100621.22
2023-02-17T17:56:41.915Z,100633.88
2023-02-17T17:59:10.238Z,100639.25
2023-02-17T18:01:38.417Z,100653.94
2023-02-17T18:04:09.285Z,100647.09
2023-02-17T18:06:42.942Z,100651.59
2023-02-17T18:09:30.228Z,100660.16
2023-02-17T18:12:01.391Z,100670.72
2023-02-17T18:14:29.948Z,100684.41
2023-02-17T18:16:58.956Z,100682.31
2023-02-17T18:19:27.236Z,100687.50
2023-02-17T18:21:54.832Z,100683.13
2023-02-17T18:24:23.710Z,100688.75
2023-02-17T18:26:52.155Z,100696.63
2023-02-17T18:29:20.376Z,100698.66
2023-02-17T18:31:48.438Z,100708.13
2023-02-17T18:34:19.211Z,100714.97
2023-02-17T18:36:47.063Z,100709.28
2023-02-17T18:39:14.782Z,100698.88
2023-02-17T18:41:43.671Z,100701.78
2023-02-17T18:44:15.863Z,100708.97
2023-02-17T18:46:43.871Z,100726.13
2023-02-17T18:49:11.724Z,100716.06
2023-02-17T18:51:39.701Z,100721.13
2023-02-17T18:54:12.957Z,100722.28
2023-02-17T18:56:43.292Z,100727.97
2023-02-17T18:59:12.188Z,100732.16
2023-02-17T19:01:40.940Z,100740.25
2023-02-17T19:04:12.440Z,100736.53
2023-02-17T19:06:42.591Z,100743.44
2023-02-17T19:09:10.391Z,100751.06
2023-02-17T19:11:38.258Z,100746.50
2023-02-17T19:14:06.104Z,100746.31
2023-02-17T19:16:36.631Z,100752.28
2023-02-17T19:19:04.599Z,100748.38
2023-02-17T19:21:35.936Z,100759.31
2023-02-17T19:24:03.841Z,100765.75
2023-02-17T19:26:34.055Z,100759.59
2023-02-17T19:29:01.609Z,100756.31
2023-02-17T19:31:29.588Z,100748.88
2023-02-17T19:34:07.452Z,100760.78
2023-02-17T19:36:34.988Z,100761.63
2023-02-17T19:41:45.113Z,100765.94
2023-02-17T19:44:12.690Z,100764.72
2023-02-17T19:46:40.893Z,100765.53
2023-02-17T19:49:10.147Z,100771.75
2023-02-17T19:51:37.724Z,100778.16
2023-02-17T19:54:05.618Z,100779.28
2023-02-17T19:56:35.185Z,100774.44
2023-02-17T19:59:03.347Z,100778.16
2023-02-17T20:01:33.510Z,100780.03
2023-02-17T20:04:06.023Z,100775.78
2023-02-17T20:06:39.647Z,100791.00
2023-02-17T20:09:10.519Z,100786.19
2023-02-17T20:11:38.580Z,100789.06
2023-02-17T20:14:07.012Z,100794.59
2023-02-17T20:16:39.039Z,100788.03
2023-02-17T20:19:09.970Z,100791.00
2023-02-17T20:21:42.218Z,100800.72
2023-02-17T20:24:10.643Z,100797.97
2023-02-17T20:26:40.698Z,100801.81
2023-02-17T20:29:18.909Z,100791.88
2023-02-17T20:31:46.655Z,100798.53
2023-02-17T20:34:26.885Z,100794.19
2023-02-17T20:37:04.426Z,100792.63
2023-02-17T20:39:32.010Z,100797.00
2023-02-17T20:42:00.566Z,100789.94
2023-02-17T20:44:28.567Z,100792.41
2023-02-17T20:46:57.156Z,100796.06
2023-02-17T20:49:25.469Z,100800.00
2023-02-17T20:51:53.810Z,100809.00
2023-02-17T20:54:25.331Z,100815.78
2023-02-17T20:56:53.092Z,100820.53
2023-02-17T20:59:20.835Z,100808.56
2023-02-17T21:01:48.664Z,100808.84
2023-02-17T21:04:19.573Z,100807.44
2023-02-17T21:06:47.392Z,100818.47
2023-02-17T21:09:19.383Z,100819.50
2023-02-17T21:11:48.938Z,100828.84
2023-02-17T21:14:16.600Z,100822.44
2023-02-17T21:16:45.239Z,100826.44
2023-02-17T21:19:13.014Z,100822.00
2023-02-17T21:21:41.796Z,100827.63
2023-02-17T21:24:09.618Z,100825.88
2023-02-17T21:26:44.435Z,100828.72
2023-02-17T21:29:15.384Z,100829.97
2023-02-17T21:31:43.014Z,100831.25
2023-02-17T21:34:10.698Z,100830.81
2023-02-17T21:36:38.462Z,100820.81
2023-02-17T21:39:06.544Z,100820.78
2023-02-17T21:41:34.585Z,100823.06
2023-02-17T21:44:20.867Z,100806.44
2023-02-17T21:46:49.862Z,100812.63
2023-02-17T21:49:17.433Z,100802.66
2023-02-17T21:55:45.672Z,100809.69
2023-02-17T21:58:15.236Z,100804.44
2023-02-17T22:00:42.813Z,100803.59
2023-02-17T22:03:11.849Z,100812.00
2023-02-17T22:05:39.410Z,100814.44
2023-02-17T22:08:07.181Z,100805.78
2023-02-17T22:10:37.707Z,100805.72
2023-02-17T22:13:06.089Z,100813.13
2023-02-17T22:15:33.796Z,100807.75
2023-02-17T22:18:02.099Z,100804.75
2023-02-17T22:20:31.334Z,100806.63
2023-02-17T22:22:58.884Z,100809.81
2023-02-17T22:25:26.503Z,100812.50
2023-02-17T22:27:54.099Z,100825.81
2023-02-17T22:30:21.873Z,100830.91
2023-02-17T22:32:52.190Z,100828.69
2023-02-17T22:35:20.877Z,100826.88
2023-02-17T22:37:51.694Z,100815.56
2023-02-17T22:40:19.756Z,100825.69
2023-02-17T22:42:49.753Z,100827.34
2023-02-17T22:45:18.302Z,100830.03
2023-02-17T22:47:45.926Z,100825.03
2023-02-17T22:50:13.532Z,100816.47
2023-02-17T22:52:41.780Z,100822.22
2023-02-17T22:55:10.822Z,100823.06
2023-02-17T22:57:45.649Z,100815.91
2023-02-17T23:00:15.210Z,100814.22
2023-02-17T23:02:42.957Z,100819.81
2023-02-17T23:05:11.023Z,100820.09
2023-02-17T23:07:38.624Z,100823.59
2023-02-17T23:10:07.780Z,100822.69
2023-02-17T23:12:37.792Z,100811.47
2023-02-17T23:15:06.694Z,100818.22
2023-02-17T23:17:55.887Z,100823.78
2023-02-17T23:20:24.710Z,100829.25
2023-02-17T23:22:58.243Z,100835.66
2023-02-17T23:25:25.879Z,100840.53
2023-02-17T23:27:54.924Z,100837.22
2023-02-17T23:30:27.387Z,100836.47
2023-02-17T23:32:55.680Z,100836.88
2023-02-17T23:35:23.314Z,100832.16
2023-02-17T23:37:53.488Z,100827.47
2023-02-17T23:40:23.983Z,100829.28
2023-02-17T23:42:53.736Z,100831.50
2023-02-17T23:45:23.806Z,100826.22
2023-02-17T23:47:51.354Z,100836.28
2023-02-17T23:50:19.507Z,100828.59
2023-02-17T23:52:47.115Z,100819.72
2023-02-17T23:55:14.928Z,100813.41
2023-02-17T23:57:42.592Z,100820.81
